MSC Regina — 3FGF9 — position and weather

sailwx.info

Track history (hours):
 
Tides and Currents Weather Stations Pressure Air Temp Water Temp Dewpoint Dewpoint Depression Visibility Wind Speed Wind Dir Waves Ship Positions

MSC Regina

Last reported at 2015-Apr-01 16:25 UTC. Time now 2015-Apr-01 21:19 UTC.
Position N 46°10' W 072°56'.

Length 259 m; draft 10.3 m.

Type: Ship (hazmat cat A). MMSI: 357331980.

Date/timePositionNaut miles runAvg speedWind from/ knotsBaromVisibWave heightAir tempDewpointWater temp
2015-Apr-01 16:25N 46°10' W 072°56'7 8.5
2015-Apr-01 15:33N 46°14' W 072°47'9 9.2
2015-Apr-01 14:33N 46°18' W 072°35'6 6.0
2015-Apr-01 13:33N 46°22' W 072°29'8 8.1
2015-Apr-01 12:33N 46°26' W 072°19'9 8.8
2015-Apr-01 11:33N 46°32' W 072°10'1211.6
2015-Apr-01 10:33N 46°38' W 071°56'  
2015-Mar-25 00:33N 38°01' W 009°40'1212.4
2015-Mar-24 23:32N 37°59' W 009°24'1313.4
2015-Mar-24 22:33N 37°56' W 009°08'1413.8
2015-Mar-24 21:33N 37°55' W 008°51'1 1.1
2015-Mar-24 20:32N 37°56' W 008°51'0 0.0
2015-Mar-24 19:32N 37°56' W 008°51'0 0.0
2015-Mar-24 18:32N 37°56' W 008°51'0 0.0
2015-Mar-24 17:32N 37°56' W 008°51'0 0.0
2015-Mar-24 16:32N 37°56' W 008°51'0 0.0
2015-Mar-24 15:32N 37°56' W 008°51'0 0.0
2015-Mar-24 14:32N 37°56' W 008°51'0 0.0
2015-Mar-24 13:32N 37°56' W 008°51'0 0.0
2015-Mar-24 12:32N 37°56' W 008°51'0 0.0
2015-Mar-24 11:32N 37°56' W 008°51'0 0.0
2015-Mar-24 10:32N 37°56' W 008°51'1 0.5
2015-Mar-24 09:33N 37°55' W 008°50'5 4.8
2015-Mar-24 08:33N 37°51' W 008°52'1211.7
2015-Mar-24 07:33N 37°40' W 008°58'1313.3
2015-Mar-24 06:33N 37°28' W 009°06'1312.8
2015-Mar-24 05:33N 37°17' W 009°12'3811.2
2015-Mar-24 02:09N 36°42' W 008°53'1218.6
2015-Mar-24 01:32N 36°37' W 008°40'15318.1
2015-Mar-23 17:05N 35°58' W 005°37'917.2
2015-Mar-23 16:33N 36°00' W 005°26'22319.9
2015-Mar-23 05:22N 37°12' W 001°03'1821.4
2015-Mar-23 04:32N 37°24' W 000°47'2121.2
2015-Mar-23 03:33N 37°39' W 000°29'2121.0
2015-Mar-23 02:33N 37°57' W 000°15'8716.9
2015-Mar-22 21:25N 39°24' W 000°15'5 5.3
2015-Mar-22 20:33N 39°26' W 000°20'0 0.0
2015-Mar-22 19:32N 39°26' W 000°20'0 0.0
2015-Mar-22 18:32N 39°26' W 000°20'0 0.0
2015-Mar-22 17:32N 39°26' W 000°20'0 0.0
2015-Mar-22 16:32N 39°26' W 000°20'  
Track history (hours):
 
Tides and Currents Weather Stations Pressure Air Temp Water Temp Dewpoint Dewpoint Depression Visibility Wind Speed Wind Dir Waves Ship Positions

MSC Regina

Last reported at 2015-Apr-01 16:25 UTC. Time now 2015-Apr-01 21:19 UTC.
Position N 46°10' W 072°56'.

Length 259 m; draft 10.3 m.

Type: Ship (hazmat cat A). MMSI: 357331980.

Date/timePositionNaut miles runAvg speedWind from/ knotsBaromVisibWave heightAir tempDewpointWater temp
2015-Apr-01 16:25N 46°10' W 072°56'7 8.5
2015-Apr-01 15:33N 46°14' W 072°47'9 9.2
2015-Apr-01 14:33N 46°18' W 072°35'6 6.0
2015-Apr-01 13:33N 46°22' W 072°29'8 8.1
2015-Apr-01 12:33N 46°26' W 072°19'9 8.8
2015-Apr-01 11:33N 46°32' W 072°10'1211.6
2015-Apr-01 10:33N 46°38' W 071°56'  
2015-Mar-25 00:33N 38°01' W 009°40'1212.4
2015-Mar-24 23:32N 37°59' W 009°24'1313.4
2015-Mar-24 22:33N 37°56' W 009°08'1413.8
2015-Mar-24 21:33N 37°55' W 008°51'1 1.1
2015-Mar-24 20:32N 37°56' W 008°51'0 0.0
2015-Mar-24 19:32N 37°56' W 008°51'0 0.0
2015-Mar-24 18:32N 37°56' W 008°51'0 0.0
2015-Mar-24 17:32N 37°56' W 008°51'0 0.0
2015-Mar-24 16:32N 37°56' W 008°51'0 0.0
2015-Mar-24 15:32N 37°56' W 008°51'0 0.0
2015-Mar-24 14:32N 37°56' W 008°51'0 0.0
2015-Mar-24 13:32N 37°56' W 008°51'0 0.0
2015-Mar-24 12:32N 37°56' W 008°51'0 0.0
2015-Mar-24 11:32N 37°56' W 008°51'0 0.0
2015-Mar-24 10:32N 37°56' W 008°51'1 0.5
2015-Mar-24 09:33N 37°55' W 008°50'5 4.8
2015-Mar-24 08:33N 37°51' W 008°52'1211.7
2015-Mar-24 07:33N 37°40' W 008°58'1313.3
2015-Mar-24 06:33N 37°28' W 009°06'1312.8
2015-Mar-24 05:33N 37°17' W 009°12'3811.2
2015-Mar-24 02:09N 36°42' W 008°53'1218.6
2015-Mar-24 01:32N 36°37' W 008°40'15318.1
2015-Mar-23 17:05N 35°58' W 005°37'917.2
2015-Mar-23 16:33N 36°00' W 005°26'22319.9
2015-Mar-23 05:22N 37°12' W 001°03'1821.4
2015-Mar-23 04:32N 37°24' W 000°47'2121.2
2015-Mar-23 03:33N 37°39' W 000°29'2121.0
2015-Mar-23 02:33N 37°57' W 000°15'8716.9
2015-Mar-22 21:25N 39°24' W 000°15'5 5.3
2015-Mar-22 20:33N 39°26' W 000°20'0 0.0
2015-Mar-22 19:32N 39°26' W 000°20'0 0.0
2015-Mar-22 18:32N 39°26' W 000°20'0 0.0
2015-Mar-22 17:32N 39°26' W 000°20'0 0.0
2015-Mar-22 16:32N 39°26' W 000°20'  

Dump ship's entire track history